createdAt,value
2019-02-05T00:00:00.486Z,75.95
2019-02-05T00:05:05.740Z,76.35
2019-02-05T00:10:10.930Z,76.82
2019-02-05T00:15:16.432Z,77.31
2019-02-05T00:20:20.531Z,77.57
2019-02-05T00:25:25.980Z,77.57
2019-02-05T00:30:34.040Z,77.43
2019-02-05T00:35:39.290Z,78.05
2019-02-05T00:40:43.412Z,78.05
2019-02-05T00:45:47.856Z,78.57
2019-02-05T00:50:53.014Z,78.92
2019-02-05T00:55:57.369Z,79.59
2019-02-05T01:01:01.398Z,79.54
2019-02-05T01:06:05.889Z,79.41
2019-02-05T01:11:10.341Z,79.59
2019-02-05T01:16:14.657Z,79.98
2019-02-05T01:21:19.743Z,80.18
2019-02-05T01:26:29.013Z,80.74
2019-02-05T01:31:29.663Z,81.56
2019-02-05T01:36:35.471Z,81.00
2019-02-05T01:41:39.376Z,81.45
2019-02-05T01:46:43.883Z,82.17
2019-02-05T01:51:48.808Z,82.97
2019-02-05T01:56:53.275Z,82.58
2019-02-05T02:01:57.102Z,83.33
2019-02-05T02:07:01.006Z,83.58
2019-02-05T02:12:07.373Z,84.13
2019-02-05T02:17:12.075Z,84.25
2019-02-05T02:22:20.679Z,83.61
2019-02-05T02:27:25.478Z,83.55
2019-02-05T02:32:29.928Z,82.85
2019-02-05T02:37:33.639Z,83.21
2019-02-05T02:42:37.464Z,82.15
2019-02-05T02:47:41.874Z,82.22
2019-02-05T02:52:45.586Z,83.43
2019-02-05T02:57:50.068Z,83.42
2019-02-05T03:02:53.980Z,83.68
2019-02-05T03:07:59.691Z,82.97
2019-02-05T03:13:03.690Z,82.48
2019-02-05T03:18:10.047Z,82.73
2019-02-05T03:23:15.316Z,82.28
2019-02-05T03:28:20.051Z,82.07
2019-02-05T03:33:26.923Z,82.74
2019-02-05T03:38:31.173Z,83.08
2019-02-05T03:43:36.714Z,83.17
2019-02-05T03:48:41.785Z,83.54
2019-02-05T03:53:50.995Z,83.50
2019-02-05T03:59:31.710Z,83.29
2019-02-05T04:05:28.692Z,83.02
2019-02-05T04:11:00.205Z,83.21
2019-02-05T04:16:47.032Z,83.76
2019-02-05T04:22:41.770Z,83.72
2019-02-05T04:28:21.667Z,83.52
2019-02-05T04:34:06.344Z,82.90
2019-02-05T04:39:53.469Z,82.56
2019-02-05T04:45:47.645Z,83.37
2019-02-05T04:51:44.642Z,83.99
2019-02-05T04:57:56.839Z,83.55
2019-02-05T05:03:44.841Z,84.32
2019-02-05T05:09:10.988Z,83.97
2019-02-05T05:14:14.975Z,84.10
2019-02-05T05:19:19.365Z,83.83
2019-02-05T05:24:23.792Z,84.11
2019-02-05T05:29:28.210Z,84.49
2019-02-05T05:34:34.591Z,84.67
2019-02-05T05:39:38.442Z,84.39
2019-02-05T05:44:42.293Z,83.91
2019-02-05T05:49:45.989Z,84.43
2019-02-05T05:54:49.667Z,82.90
2019-02-05T05:59:53.874Z,82.34
2019-02-05T06:04:57.573Z,82.42
2019-02-05T06:10:01.232Z,81.73
2019-02-05T06:15:07.234Z,80.35
2019-02-05T06:20:14.259Z,81.01
2019-02-05T06:25:18.432Z,81.14
2019-02-05T06:30:23.041Z,81.45
2019-02-05T06:35:27.460Z,80.96
2019-02-05T06:40:34.862Z,80.54
2019-02-05T06:45:41.475Z,79.67
2019-02-05T06:50:44.741Z,78.46
2019-02-05T06:55:48.765Z,78.62
2019-02-05T07:00:52.556Z,78.16
2019-02-05T07:05:56.532Z,77.96
2019-02-05T07:11:00.450Z,77.60
2019-02-05T07:16:04.310Z,77.18
2019-02-05T07:21:08.185Z,75.56
2019-02-05T07:26:12.395Z,74.58
2019-02-05T07:31:16.473Z,73.04
2019-02-05T07:36:20.857Z,72.43
2019-02-05T07:41:24.655Z,72.72
2019-02-05T07:46:28.650Z,72.42
2019-02-05T07:51:32.613Z,73.57
2019-02-05T07:56:36.520Z,73.55
2019-02-05T08:01:40.420Z,74.97
2019-02-05T08:06:44.201Z,74.97
2019-02-05T08:11:48.971Z,80.96
2019-02-05T08:16:52.893Z,81.86
2019-02-05T08:21:57.106Z,80.77
2019-02-05T08:27:02.268Z,81.77
2019-02-05T08:32:06.183Z,82.45
2019-02-05T08:37:10.315Z,83.85
2019-02-05T08:42:14.602Z,84.57
2019-02-05T08:47:18.873Z,85.62
2019-02-05T08:52:22.906Z,86.30
2019-02-05T08:57:26.895Z,86.00
2019-02-05T09:02:30.722Z,85.16
2019-02-05T09:07:34.546Z,82.48
2019-02-05T09:12:40.501Z,82.48
2019-02-05T09:17:44.334Z,81.30
2019-02-05T09:22:48.488Z,81.60
2019-02-05T09:27:52.597Z,81.19
2019-02-05T09:32:57.906Z,80.94
2019-02-05T09:38:02.105Z,79.92
2019-02-05T09:43:05.870Z,79.17
2019-02-05T09:48:10.062Z,79.04
2019-02-05T09:53:14.668Z,78.90
2019-02-05T09:58:18.701Z,77.96
2019-02-05T10:03:22.562Z,77.96
2019-02-05T10:08:27.519Z,75.45
2019-02-05T10:13:31.709Z,75.45
2019-02-05T10:18:36.414Z,75.00
2019-02-05T10:23:40.336Z,74.93
2019-02-05T10:28:45.046Z,73.90
2019-02-05T10:33:55.387Z,73.55
2019-02-05T10:38:58.123Z,74.29
2019-02-05T10:44:05.521Z,74.96
2019-02-05T10:49:09.221Z,74.11
2019-02-05T10:54:12.919Z,74.24
2019-02-05T10:59:20.442Z,74.19
2019-02-05T11:04:24.470Z,73.89
2019-02-05T11:09:28.461Z,73.80
2019-02-05T11:14:33.439Z,72.68
2019-02-05T11:19:39.013Z,72.34
2019-02-05T11:24:43.221Z,70.92
2019-02-05T11:29:49.086Z,69.84
2019-02-05T11:34:53.014Z,69.77
2019-02-05T11:39:57.624Z,69.49
2019-02-05T11:45:02.016Z,68.33
2019-02-05T11:50:10.356Z,68.39
2019-02-05T11:55:20.363Z,67.86
2019-02-05T12:00:44.171Z,68.37
2019-02-05T12:05:48.429Z,67.00
2019-02-05T12:10:53.273Z,66.84
2019-02-05T12:15:57.173Z,66.30
2019-02-05T12:21:01.263Z,65.91
2019-02-05T12:26:05.760Z,63.86
2019-02-05T12:31:09.635Z,63.53
2019-02-05T12:36:13.581Z,62.33
2019-02-05T12:41:18.449Z,60.61
2019-02-05T12:46:23.509Z,58.39
2019-02-05T12:51:27.481Z,58.18
2019-02-05T12:56:34.782Z,58.15
2019-02-05T13:01:38.805Z,51.26
2019-02-05T13:06:42.585Z,49.04
2019-02-05T13:11:50.269Z,47.04
2019-02-05T13:16:54.980Z,46.43
2019-02-05T13:22:00.623Z,47.17
2019-02-05T13:27:04.661Z,45.92
2019-02-05T13:32:08.445Z,45.56
2019-02-05T13:37:12.152Z,44.41
2019-02-05T13:42:16.755Z,44.99
2019-02-05T13:47:21.157Z,45.55
2019-02-05T13:52:24.889Z,45.07
2019-02-05T13:57:28.579Z,44.19
2019-02-05T14:02:32.386Z,43.74
2019-02-05T14:07:39.472Z,42.96
2019-02-05T14:12:45.251Z,44.93
2019-02-05T14:17:49.295Z,44.62
2019-02-05T14:22:54.177Z,45.04
2019-02-05T14:27:57.968Z,45.09
2019-02-05T14:33:01.910Z,45.11
2019-02-05T14:38:07.420Z,45.16
2019-02-05T14:43:12.282Z,45.47
2019-02-05T14:48:16.779Z,45.78
2019-02-05T14:53:20.484Z,47.02
2019-02-05T14:58:24.287Z,58.26
2019-02-05T15:03:28.253Z,61.16
2019-02-05T15:08:31.958Z,61.16
2019-02-05T15:13:35.997Z,62.33
2019-02-05T15:18:39.824Z,62.78
2019-02-05T15:23:43.712Z,62.51
2019-02-05T15:28:48.356Z,63.21
2019-02-05T15:33:58.004Z,63.43
2019-02-05T15:39:01.953Z,64.99
2019-02-05T15:44:08.552Z,65.46
2019-02-05T15:49:12.246Z,66.19
2019-02-05T15:54:16.189Z,68.83
2019-02-05T15:59:20.214Z,70.16
2019-02-05T16:04:24.110Z,70.50
2019-02-05T16:09:29.072Z,70.85
2019-02-05T16:14:32.871Z,70.59
2019-02-05T16:19:36.767Z,71.28
2019-02-05T16:24:41.507Z,70.97
2019-02-05T16:29:45.280Z,71.23
2019-02-05T16:34:49.254Z,69.56
2019-02-05T16:39:53.149Z,70.32
2019-02-05T16:44:57.190Z,70.64
2019-02-05T16:50:02.750Z,69.51
2019-02-05T16:55:07.188Z,68.62
2019-02-05T17:00:25.590Z,70.09
2019-02-05T17:05:32.880Z,69.35
2019-02-05T17:10:36.961Z,70.65
2019-02-05T17:15:41.087Z,71.27
2019-02-05T17:20:44.921Z,71.55
2019-02-05T17:25:48.783Z,71.92
2019-02-05T17:30:53.958Z,71.75
2019-02-05T17:35:58.326Z,70.97
2019-02-05T17:41:04.395Z,71.31
2019-02-05T17:46:08.775Z,70.47
2019-02-05T17:51:12.573Z,70.72
2019-02-05T17:56:16.438Z,70.98
2019-02-05T18:01:20.666Z,71.17
2019-02-05T18:06:25.199Z,69.17
2019-02-05T18:11:29.133Z,68.83
2019-02-05T18:16:32.951Z,65.70
2019-02-05T18:21:37.602Z,64.98
2019-02-05T18:26:41.461Z,64.63
2019-02-05T18:31:45.527Z,65.39
2019-02-05T18:36:49.976Z,65.30
2019-02-05T18:41:53.875Z,64.74
2019-02-05T18:46:58.468Z,64.20
2019-02-05T18:52:03.622Z,63.87
2019-02-05T18:57:07.815Z,64.61
2019-02-05T19:02:12.959Z,63.68
2019-02-05T19:07:17.685Z,62.96
2019-02-05T19:12:21.611Z,62.80
2019-02-05T19:17:25.506Z,61.78
2019-02-05T19:22:29.310Z,61.33
2019-02-05T19:27:33.687Z,61.23
2019-02-05T19:32:39.612Z,58.57
2019-02-05T19:37:43.940Z,59.69
2019-02-05T19:42:47.846Z,59.40
2019-02-05T19:47:52.026Z,59.46
2019-02-05T19:52:55.906Z,60.64
2019-02-05T19:58:00.207Z,60.94
2019-02-05T20:03:04.107Z,62.26
2019-02-05T20:08:09.052Z,60.23
2019-02-05T20:13:12.764Z,61.58
2019-02-05T20:18:16.643Z,62.11
2019-02-05T20:23:20.401Z,61.79
2019-02-05T20:28:24.448Z,61.35
2019-02-05T20:33:28.679Z,62.70
2019-02-05T20:38:32.870Z,62.96
2019-02-05T20:43:36.883Z,62.97
2019-02-05T20:48:41.162Z,61.49
2019-02-05T20:53:45.126Z,61.99
2019-02-05T20:58:52.513Z,63.07
2019-02-05T21:04:01.317Z,63.20
2019-02-05T21:09:26.179Z,63.45
2019-02-05T21:14:29.909Z,63.93
2019-02-05T21:19:37.093Z,63.77
2019-02-05T21:24:43.662Z,63.57
2019-02-05T21:29:49.217Z,63.53
2019-02-05T21:34:57.683Z,64.12
2019-02-05T21:40:02.865Z,64.27
2019-02-05T21:45:09.294Z,64.75
2019-02-05T21:50:16.550Z,63.64
2019-02-05T21:55:21.650Z,60.66
2019-02-05T22:00:29.213Z,60.17
2019-02-05T22:05:36.902Z,62.13
2019-02-05T22:10:41.486Z,62.17
2019-02-05T22:15:45.637Z,66.08
2019-02-05T22:20:49.830Z,66.84
2019-02-05T22:25:54.424Z,63.92
2019-02-05T22:30:58.445Z,61.30
2019-02-05T22:36:02.956Z,62.34
2019-02-05T22:41:06.926Z,62.12
2019-02-05T22:46:10.764Z,62.43
2019-02-05T22:51:15.274Z,63.29
2019-02-05T22:56:19.066Z,62.54
2019-02-05T23:01:46.605Z,61.73
2019-02-05T23:07:20.342Z,60.80
2019-02-05T23:12:28.286Z,61.16
2019-02-05T23:17:32.011Z,62.01
2019-02-05T23:22:36.432Z,62.44
2019-02-05T23:27:40.860Z,63.29
2019-02-05T23:32:44.887Z,63.85
2019-02-05T23:37:48.712Z,62.16
2019-02-05T23:42:52.993Z,63.81
2019-02-05T23:47:57.173Z,64.26
2019-02-05T23:53:01.869Z,66.01
2019-02-05T23:58:05.696Z,63.37
